createdAt,value
2023-07-23T00:28:31.353Z,20.78
2023-07-23T00:57:10.351Z,20.33
2023-07-23T01:26:00.577Z,19.85
2023-07-23T01:54:35.590Z,19.7
2023-07-23T02:23:21.692Z,19.33
2023-07-23T02:52:09.907Z,18.87
2023-07-23T03:20:44.912Z,18.61
2023-07-23T03:49:40.005Z,18.08
2023-07-23T04:18:27.454Z,18.3
2023-07-23T04:47:13.217Z,18.43
2023-07-23T05:15:54.011Z,19.62
2023-07-23T05:44:42.234Z,19.95
2023-07-23T06:13:35.730Z,20.56
2023-07-23T06:42:22.538Z,28.93
2023-07-23T07:11:40.066Z,32.57
2023-07-23T07:40:29.165Z,27.28
2023-07-23T08:08:58.824Z,27.33
2023-07-23T08:37:33.792Z,28
2023-07-23T09:06:22.251Z,27.52
2023-07-23T09:34:58.397Z,29.09
2023-07-23T10:03:24.005Z,30.37
2023-07-23T10:31:52.522Z,29.17
2023-07-23T10:59:59.206Z,29.69
2023-07-23T11:28:25.298Z,29.63
2023-07-23T11:56:55.583Z,29.57
2023-07-23T12:25:18.263Z,28.58
2023-07-23T12:54:11.491Z,28.1
2023-07-23T13:22:18.050Z,27.8
2023-07-23T13:50:52.277Z,27.88
2023-07-23T14:19:00.481Z,27.9
2023-07-23T14:47:34.581Z,27.57
2023-07-23T15:16:05.881Z,27.58
2023-07-23T15:44:44.160Z,28.01
2023-07-23T16:13:04.897Z,27.56
2023-07-23T16:41:42.277Z,27.11
2023-07-23T17:10:13.165Z,26.61
2023-07-23T17:38:43.382Z,26.63
2023-07-23T18:07:14.002Z,26.52
2023-07-23T18:35:42.945Z,26.08
2023-07-23T19:04:06.869Z,25.54
2023-07-23T19:32:30.766Z,24.65
2023-07-23T20:00:49.735Z,24.18
2023-07-23T20:29:21.866Z,23.62
2023-07-23T20:57:46.180Z,23.08
2023-07-23T21:26:08.161Z,23.11
2023-07-23T21:54:48.036Z,22.42
2023-07-23T22:23:07.130Z,22.57
2023-07-23T22:51:53.832Z,22.12
2023-07-23T23:20:37.925Z,21.94
2023-07-23T23:49:22.172Z,21.26
